Time;durP1;ratioP1;P1;durP2;ratioP2;P2;SDS_P1;SDS_P2;PMS_P1;PMS_P2;Temp;Humidity;BMP_temperature;BMP_pressure;BME280_temperature;BME280_humidity;BME280_pressure;Samples;Min_cycle;Max_cycle;Signal;HPM_P1;HPM_P2
2022/02/27 00:01:50;;;;;;;16.52;6.85;;;;;;;5.90;58.07;103275.56;4794135;29;121982;-84
2022/02/27 00:04:16;;;;;;;18.63;6.55;;;;;;;5.93;58.15;103293.97;4803871;29;119740;-85
2022/02/27 00:06:42;;;;;;;21.58;7.20;;;;;;;5.91;57.54;103288.06;4808497;29;120155;-86
2022/02/27 00:09:07;;;;;;;16.63;6.82;;;;;;;5.95;57.63;103291.69;4777414;29;119589;-83
2022/02/27 00:11:33;;;;;;;15.93;6.28;;;;;;;5.98;57.94;103295.63;4806395;29;121934;-82
2022/02/27 00:13:59;;;;;;;17.65;5.80;;;;;;;5.98;58.06;103303.78;4794175;29;120203;-84
2022/02/27 00:16:24;;;;;;;13.50;5.80;;;;;;;5.99;57.88;103298.00;4778749;29;119506;-85
2022/02/27 00:18:50;;;;;;;16.50;5.97;;;;;;;5.99;57.82;103300.72;4778838;29;122464;-86
2022/02/27 00:21:15;;;;;;;14.82;6.32;;;;;;;5.99;57.71;103299.94;4793041;29;122741;-87
2022/02/27 00:23:43;;;;;;;17.67;7.70;;;;;;;5.97;57.74;103300.28;4793446;29;120409;-87
2022/02/27 00:26:09;;;;;;;19.23;6.95;;;;;;;5.96;58.01;103295.97;4792997;29;121467;-82
2022/02/27 00:28:34;;;;;;;20.58;8.52;;;;;;;5.95;57.66;103293.63;4794900;29;120718;-85
2022/02/27 00:31:00;;;;;;;18.27;7.63;;;;;;;5.94;57.75;103297.47;4792383;29;121671;-86
2022/02/27 00:33:26;;;;;;;15.15;6.07;;;;;;;5.86;58.05;103291.03;4800721;29;119778;-87
2022/02/27 00:35:51;;;;;;;13.43;6.35;;;;;;;5.89;57.77;103303.94;4779405;29;119479;-85
2022/02/27 00:38:17;;;;;;;19.67;7.47;;;;;;;5.84;57.82;103288.66;4807862;29;121713;-85
2022/02/27 00:40:43;;;;;;;19.20;7.18;;;;;;;5.84;58.22;103296.84;4785020;29;119722;-83
2022/02/27 00:43:08;;;;;;;17.92;6.60;;;;;;;5.91;58.07;103307.13;4792617;29;119515;-83
2022/02/27 00:45:34;;;;;;;14.98;6.10;;;;;;;5.91;57.79;103312.56;4812693;29;120198;-86
2022/02/27 00:48:00;;;;;;;15.85;5.55;;;;;;;5.87;57.39;103300.78;4811532;29;119632;-86
2022/02/27 00:50:26;;;;;;;14.57;5.80;;;;;;;5.89;57.17;103308.59;4793139;29;121572;-83
2022/02/27 00:52:52;;;;;;;12.95;5.72;;;;;;;5.78;57.48;103286.56;4793885;29;123233;-85
2022/02/27 12:55:50;;;;;;;6.18;3.05;;;;;;;10.72;50.68;103248.50;5842927;23;121517;31
2022/02/27 12:58:16;;;;;;;7.10;2.72;;;;;;;10.72;50.87;103254.78;4758614;29;121694;-84
2022/02/27 13:00:44;;;;;;;8.13;3.25;;;;;;;10.45;51.21;103215.88;4776587;29;121663;-82
2022/02/27 13:03:14;;;;;;;6.40;2.78;;;;;;;10.71;50.85;103266.94;4764864;29;120603;-82
2022/02/27 13:05:41;;;;;;;6.80;2.88;;;;;;;10.61;50.86;103231.19;4776245;29;120016;-82
2022/02/27 13:08:08;;;;;;;6.10;2.70;;;;;;;10.64;50.01;103239.44;4775998;29;120186;-82
2022/02/27 13:10:36;;;;;;;6.63;3.05;;;;;;;10.74;49.68;103246.13;4776400;29;123455;-83
2022/02/27 13:13:09;;;;;;;7.82;3.28;;;;;;;10.74;49.72;103254.38;4761189;29;120022;-82
2022/02/27 13:15:35;;;;;;;7.75;3.20;;;;;;;10.72;50.30;103243.00;4778430;29;122072;-82
2022/02/27 13:18:04;;;;;;;8.02;3.33;;;;;;;10.72;50.57;103232.03;4787940;29;122500;-83
2022/02/27 13:20:34;;;;;;;7.32;3.17;;;;;;;10.86;49.81;103244.97;4775636;29;120237;-83
2022/02/27 13:22:59;;;;;;;6.20;2.85;;;;;;;10.87;49.84;103252.81;4779918;29;122123;-83
2022/02/27 13:25:25;;;;;;;5.35;2.60;;;;;;;10.75;49.03;103236.72;4774404;29;122854;-83
2022/02/27 13:27:52;;;;;;;5.05;2.45;;;;;;;10.82;49.38;103241.44;4751621;29;120842;-83
2022/02/27 13:30:25;;;;;;;4.68;2.53;;;;;;;10.83;49.10;103230.06;4769916;29;123917;-83
2022/02/27 13:32:54;;;;;;;4.47;2.60;;;;;;;10.91;49.61;103231.66;4785032;29;119610;-83
2022/02/27 13:35:23;;;;;;;6.70;2.72;;;;;;;10.93;48.69;103225.78;4770966;29;120253;-82
2022/02/27 13:37:55;;;;;;;6.28;2.97;;;;;;;10.96;48.69;103230.47;4749136;29;123632;-85
2022/02/27 13:40:24;;;;;;;7.03;2.88;;;;;;;10.84;48.78;103206.13;4778472;29;119740;-84
2022/02/27 13:42:52;;;;;;;6.97;2.78;;;;;;;10.95;48.19;103212.44;4771358;29;122463;-83
2022/02/27 13:45:39;;;;;;;7.07;2.70;;;;;;;11.01;49.30;103214.41;4777162;29;123076;-85
2022/02/27 13:48:14;;;;;;;6.10;2.58;;;;;;;10.92;49.37;103191.25;4774752;29;120466;-85
2022/02/27 13:50:45;;;;;;;5.40;2.55;;;;;;;11.03;48.29;103203.00;4760450;29;121936;-83
2022/02/27 13:53:18;;;;;;;4.43;2.80;;;;;;;11.02;49.60;103204.97;4752216;29;122663;-84
2022/02/27 13:55:52;;;;;;;6.57;2.97;;;;;;;11.04;49.02;103208.13;4775112;29;119811;-84
2022/02/27 13:58:24;;;;;;;5.80;3.20;;;;;;;11.12;48.17;103208.09;4777632;29;120554;-84
2022/02/27 14:00:57;;;;;;;7.50;2.78;;;;;;;11.10;47.55;103191.25;4773665;29;119794;-84
2022/02/27 14:03:34;;;;;;;7.93;2.80;;;;;;;11.06;48.67;103181.03;4780862;29;122048;-82
2022/02/27 14:06:12;;;;;;;6.20;3.10;;;;;;;11.15;48.58;103190.88;4760010;29;123794;-83
2022/02/27 14:08:40;;;;;;;7.10;3.20;;;;;;;11.05;49.35;103178.69;4792859;29;119688;-84
2022/02/27 14:11:12;;;;;;;6.13;3.58;;;;;;;11.14;50.00;103183.81;4789336;29;120190;-84
2022/02/27 14:13:56;;;;;;;8.02;3.70;;;;;;;11.12;49.47;103175.16;4761910;29;123018;-84
2022/02/27 14:16:27;;;;;;;6.15;3.72;;;;;;;11.14;49.68;103175.56;4782102;29;119927;-83
2022/02/27 14:18:58;;;;;;;8.45;4.10;;;;;;;11.25;49.90;103188.09;4776192;29;120631;-84
2022/02/27 14:21:29;;;;;;;8.32;3.92;;;;;;;11.12;49.40;103158.66;4760690;29;119564;-84
2022/02/27 14:23:59;;;;;;;6.07;4.05;;;;;;;11.24;50.44;103169.25;4777662;29;121983;-84
2022/02/27 14:26:30;;;;;;;7.35;4.22;;;;;;;11.16;50.21;103162.22;4777489;29;123963;-82
2022/02/27 14:29:01;;;;;;;8.52;4.47;;;;;;;11.02;49.96;103150.03;4760246;29;121259;-84
2022/02/27 14:31:38;;;;;;;8.18;4.05;;;;;;;11.08;50.62;103153.97;4776790;29;122920;-84
2022/02/27 14:34:06;;;;;;;8.43;4.10;;;;;;;10.88;49.90;103122.56;4778699;29;123372;-82
2022/02/27 14:36:32;;;;;;;9.38;3.95;;;;;;;11.15;49.49;103160.66;4765360;29;120226;-83
2022/02/27 14:38:58;;;;;;;9.43;4.47;;;;;;;11.00;49.80;103135.91;4782175;29;119393;-84
2022/02/27 14:41:25;;;;;;;7.70;4.63;;;;;;;11.14;50.59;103159.84;4762641;29;119789;-85
2022/02/27 14:43:52;;;;;;;9.45;4.78;;;;;;;11.22;50.65;103160.63;4801736;29;120016;-84
2022/02/27 14:46:17;;;;;;;10.40;4.53;;;;;;;10.93;50.46;103126.91;4763835;29;122687;-83
2022/02/27 14:48:43;;;;;;;7.93;4.72;;;;;;;11.23;50.19;103170.44;4778675;29;121109;-82
2022/02/27 14:51:11;;;;;;;9.18;4.65;;;;;;;11.24;50.25;103158.28;4779435;29;122602;-84
2022/02/27 14:53:37;;;;;;;12.05;5.63;;;;;;;11.15;51.39;103150.44;4778465;29;123236;-83
2022/02/27 14:56:03;;;;;;;12.88;5.28;;;;;;;11.12;51.20;103148.47;4765043;29;119670;-83
2022/02/27 14:58:31;;;;;;;11.15;5.22;;;;;;;11.00;50.30;103135.91;4780859;29;122311;-84
2022/02/27 15:00:58;;;;;;;8.43;5.20;;;;;;;11.14;50.44;103164.56;4778924;29;121314;-83
2022/02/27 15:03:24;;;;;;;12.80;5.50;;;;;;;11.15;50.68;103160.66;4795256;29;119802;-84
2022/02/27 15:05:50;;;;;;;9.20;5.32;;;;;;;11.13;51.45;103154.75;4762680;29;123611;-83
2022/02/27 15:08:16;;;;;;;9.80;5.28;;;;;;;11.15;51.80;103161.44;4780265;29;121168;-85
2022/02/27 15:10:42;;;;;;;9.85;5.18;;;;;;;11.12;51.55;103147.66;4793545;29;121967;-85
2022/02/27 15:13:07;;;;;;;11.63;4.72;;;;;;;11.14;51.75;103156.31;4776300;29;122790;-84
2022/02/27 15:15:36;;;;;;;13.30;5.85;;;;;;;11.12;51.76;103150.41;4751332;29;119810;-83
2022/02/27 15:18:03;;;;;;;10.10;5.57;;;;;;;11.07;52.14;103148.84;4778300;29;123014;-83
2022/02/27 15:20:29;;;;;;;11.65;5.57;;;;;;;11.10;51.96;103147.28;4782289;29;120352;-83
2022/02/27 15:22:57;;;;;;;11.52;5.53;;;;;;;10.94;52.38;103129.25;4796829;29;119779;-83
2022/02/27 15:25:23;;;;;;;10.57;5.20;;;;;;;10.92;52.22;103120.63;4775500;29;123081;-84
2022/02/27 15:27:49;;;;;;;9.38;5.88;;;;;;;11.10;52.42;103166.50;4779165;29;119404;-84
2022/02/27 15:30:16;;;;;;;10.68;5.68;;;;;;;10.80;52.33;103114.75;4784100;29;121983;-84
2022/02/27 15:32:47;;;;;;;11.93;5.50;;;;;;;11.08;52.21;103159.44;4759760;29;123093;-83
2022/02/27 15:35:13;;;;;;;12.38;5.20;;;;;;;11.01;51.89;103155.94;4747362;29;119923;-83
2022/02/27 15:37:38;;;;;;;10.80;5.53;;;;;;;10.96;51.69;103156.34;4762867;29;122680;-84
2022/02/27 15:40:06;;;;;;;12.25;5.60;;;;;;;10.97;51.49;103157.91;4776803;29;122839;-83
2022/02/27 15:42:32;;;;;;;13.30;5.18;;;;;;;10.89;52.10;103148.88;4777540;29;120082;-84
2022/02/27 15:44:58;;;;;;;11.93;5.97;;;;;;;10.48;52.46;103084.56;4777728;29;119814;-85
2022/02/27 15:47:24;;;;;;;11.40;5.63;;;;;;;10.72;52.30;103116.72;4755780;29;120979;-83
2022/02/27 15:49:50;;;;;;;10.75;5.30;;;;;;;10.65;52.50;103117.50;4791614;29;122487;-83
2022/02/27 15:52:16;;;;;;;13.50;6.07;;;;;;;10.85;52.49;103156.31;4792375;29;121641;-84
2022/02/27 15:54:43;;;;;;;9.43;5.10;;;;;;;10.55;52.00;103112.00;4761746;29;119497;-84
2022/02/27 15:57:11;;;;;;;11.68;5.55;;;;;;;10.76;52.24;103144.94;4778523;29;122622;-84
2022/02/27 15:59:36;;;;;;;13.18;6.32;;;;;;;10.67;53.00;103150.84;4760077;29;123067;-85
2022/02/27 16:02:03;;;;;;;14.18;6.18;;;;;;;10.36;52.35;103100.19;4776795;29;119590;-84
2022/02/27 16:04:29;;;;;;;11.00;5.82;;;;;;;10.66;52.32;103151.22;4794600;29;122422;-85
2022/02/27 16:06:54;;;;;;;16.83;8.10;;;;;;;10.58;52.66;103155.13;4762934;29;120069;-85
2022/02/27 16:09:20;;;;;;;10.85;6.28;;;;;;;10.44;52.43;103136.69;4761197;29;122348;-84
2022/02/27 16:11:47;;;;;;;17.13;6.40;;;;;;;10.39;52.46;103126.06;4763268;29;123642;-85
2022/02/27 16:14:13;;;;;;;11.40;6.88;;;;;;;10.56;52.42;103160.22;4774316;29;121584;-84
2022/02/27 16:16:39;;;;;;;14.48;6.55;;;;;;;10.49;52.86;103152.75;4777125;29;121363;-85
2022/02/27 16:19:05;;;;;;;14.95;7.28;;;;;;;10.19;53.33;103109.19;4770340;29;122863;-84
2022/02/27 16:21:35;;;;;;;15.40;7.10;;;;;;;10.23;53.26;103112.75;4764789;29;119847;-84
2022/02/27 16:24:01;;;;;;;14.63;7.32;;;;;;;10.29;53.96;103126.84;4772992;29;123923;-83
2022/02/27 16:26:27;;;;;;;14.27;7.25;;;;;;;10.48;54.07;103156.69;4777861;29;123072;-85
2022/02/27 16:28:52;;;;;;;14.27;7.50;;;;;;;10.43;54.18;103155.13;4772818;29;122320;-86
2022/02/27 16:31:18;;;;;;;13.05;7.53;;;;;;;10.43;54.38;103160.59;4775511;29;120745;-86
2022/02/27 16:33:45;;;;;;;16.00;7.75;;;;;;;10.37;54.70;103153.13;4775064;29;119798;-83
2022/02/27 16:36:10;;;;;;;17.58;8.52;;;;;;;10.23;55.08;103147.63;4760265;29;122086;-86
2022/02/27 16:38:36;;;;;;;18.60;8.38;;;;;;;10.26;55.10;103147.63;4754961;29;123051;-84
2022/02/27 16:41:03;;;;;;;13.70;8.32;;;;;;;10.21;55.41;103153.50;4772806;29;121033;-86
2022/02/27 16:43:34;;;;;;;17.88;8.98;;;;;;;10.05;55.55;103144.78;4790189;29;119776;-86
2022/02/27 16:46:00;;;;;;;18.05;9.15;;;;;;;9.99;55.95;103144.38;4755931;29;122747;-83
2022/02/27 16:48:26;;;;;;;18.27;9.82;;;;;;;9.79;56.21;103135.66;4781652;29;119749;-85
2022/02/27 16:50:52;;;;;;;16.90;10.15;;;;;;;9.83;55.94;103149.38;4774913;29;123078;-87
2022/02/27 16:53:19;;;;;;;18.23;10.45;;;;;;;9.88;56.20;103164.69;4747753;29;120659;-89
2022/02/27 16:55:44;;;;;;;17.65;9.98;;;;;;;9.83;56.03;103163.88;4755607;29;120631;-88
2022/02/27 16:58:10;;;;;;;18.23;10.90;;;;;;;9.71;56.49;103156.00;4792039;29;123040;-85
2022/02/27 17:00:37;;;;;;;22.15;11.25;;;;;;;9.69;56.91;103155.56;4779023;29;119751;-86
2022/02/27 17:03:04;;;;;;;17.67;10.75;;;;;;;9.61;56.78;103142.22;4743478;29;121922;-86
2022/02/27 17:05:29;;;;;;;16.40;10.55;;;;;;;9.56;57.49;103145.34;4777269;29;122839;-84
2022/02/27 17:07:55;;;;;;;21.98;12.02;;;;;;;9.51;57.01;103151.97;4779951;29;119907;-86
2022/02/27 17:10:21;;;;;;;18.40;12.02;;;;;;;9.48;56.89;103155.50;4760137;29;123122;-86
2022/02/27 17:12:46;;;;;;;18.13;11.40;;;;;;;9.45;57.02;103157.00;4777451;29;120217;-86
2022/02/27 17:15:12;;;;;;;24.48;12.20;;;;;;;9.36;57.71;103156.56;4774645;29;122127;-88
2022/02/27 17:17:39;;;;;;;20.20;11.88;;;;;;;9.13;57.43;103115.72;4774615;29;123298;-88
2022/02/27 17:20:06;;;;;;;20.58;11.43;;;;;;;9.19;57.23;103133.38;4777374;29;121635;-86
2022/02/27 17:22:34;;;;;;;20.77;12.35;;;;;;;9.29;57.14;103155.75;4774174;29;122465;-87
2022/02/27 17:25:05;;;;;;;23.48;13.18;;;;;;;9.27;57.28;103161.59;4772815;29;120435;-86
2022/02/27 17:27:30;;;;;;;20.88;13.00;;;;;;;8.95;57.81;103117.53;4789619;29;119697;-87
2022/02/27 17:29:56;;;;;;;21.17;12.85;;;;;;;8.85;57.90;103116.31;4779943;29;122835;-87
2022/02/27 17:32:22;;;;;;;21.15;12.85;;;;;;;9.13;57.49;103161.50;4762616;29;120923;-87
2022/02/27 17:34:47;;;;;;;23.55;13.05;;;;;;;8.94;58.15;103132.41;4775816;29;120469;-87
2022/02/27 17:37:13;;;;;;;22.30;12.40;;;;;;;9.01;58.02;103153.59;4789053;29;120231;-81
2022/02/27 17:39:38;;;;;;;24.42;13.40;;;;;;;8.97;58.05;103150.00;4777369;29;119735;-86
2022/02/27 17:42:04;;;;;;;24.38;13.82;;;;;;;8.87;58.26;103138.63;4777153;29;122554;-87
2022/02/27 17:44:30;;;;;;;21.67;13.05;;;;;;;8.93;58.62;103159.00;4762933;29;123188;-86
2022/02/27 17:46:56;;;;;;;20.42;14.40;;;;;;;8.90;58.62;103157.00;4776660;29;119579;-86
2022/02/27 17:49:21;;;;;;;25.00;15.18;;;;;;;8.88;58.75;103158.56;4772694;29;121699;-86
2022/02/27 17:51:50;;;;;;;24.10;14.23;;;;;;;8.61;58.52;103119.63;4782189;29;120324;-87
2022/02/27 17:54:17;;;;;;;25.80;14.75;;;;;;;8.73;58.48;103143.94;4778037;29;119955;-86
2022/02/27 17:56:43;;;;;;;29.45;16.13;;;;;;;8.77;59.15;103161.22;4776558;29;120393;-87
2022/02/27 17:59:09;;;;;;;25.42;15.25;;;;;;;8.69;58.92;103147.81;4766225;29;120698;-86
2022/02/27 18:01:36;;;;;;;29.27;15.68;;;;;;;8.70;59.71;103146.66;4774135;29;120465;-87
2022/02/27 18:04:01;;;;;;;26.60;15.32;;;;;;;8.72;59.24;103153.31;4761693;29;123390;-86
2022/02/27 18:06:30;;;;;;;27.15;16.60;;;;;;;8.73;59.04;103160.38;4779012;29;119979;-86
2022/02/27 18:08:59;;;;;;;25.52;16.15;;;;;;;8.65;59.24;103152.47;4789765;29;119860;-85
2022/02/27 18:11:26;;;;;;;29.50;16.58;;;;;;;8.73;59.47;103165.06;4772432;29;120413;-86
2022/02/27 18:13:52;;;;;;;27.15;16.23;;;;;;;8.62;59.11;103162.22;4803319;29;119548;-88
2022/02/27 18:16:17;;;;;;;22.45;15.20;;;;;;;8.61;59.49;103172.41;4778192;29;123537;-87
2022/02/27 18:18:43;;;;;;;27.38;15.05;;;;;;;8.62;59.32;103164.97;4767506;29;121288;-85
2022/02/27 18:21:09;;;;;;;24.83;14.00;;;;;;;8.30;59.27;103118.13;4790490;29;120141;-87
2022/02/27 18:23:35;;;;;;;23.83;14.57;;;;;;;8.63;59.32;103182.97;4774655;29;126287;-87
2022/02/27 18:26:02;;;;;;;24.55;15.40;;;;;;;8.56;59.90;103175.47;4761942;29;119664;-88
2022/02/27 18:28:33;;;;;;;24.45;14.40;;;;;;;8.66;59.34;103181.41;4775114;29;122064;-86
2022/02/27 18:31:01;;;;;;;25.88;14.73;;;;;;;8.62;59.77;103181.38;4776605;29;123258;-87
2022/02/27 18:33:28;;;;;;;25.50;14.63;;;;;;;8.52;59.63;103166.44;4775392;29;120183;-87
2022/02/27 18:35:54;;;;;;;22.80;14.88;;;;;;;8.35;59.77;103145.16;4777670;29;122007;-86
2022/02/27 18:38:20;;;;;;;25.45;14.75;;;;;;;8.33;59.96;103152.94;4761057;29;120691;-86
2022/02/27 18:40:45;;;;;;;25.60;14.55;;;;;;;8.35;59.74;103158.84;4773762;29;122186;-88
2022/02/27 18:43:11;;;;;;;21.17;14.48;;;;;;;8.36;59.71;103168.63;4778290;29;122855;-88
2022/02/27 18:45:37;;;;;;;27.10;14.85;;;;;;;8.14;59.89;103132.00;4775209;29;122993;-87
2022/02/27 18:48:03;;;;;;;23.13;13.75;;;;;;;8.14;59.72;103131.22;4760275;29;122316;-87
2022/02/27 18:50:29;;;;;;;27.30;15.40;;;;;;;8.50;59.87;103196.09;4776515;29;123853;-88
2022/02/27 18:52:54;;;;;;;29.48;15.80;;;;;;;8.48;59.49;103190.22;4761347;29;120095;-86
2022/02/27 18:55:20;;;;;;;26.20;15.15;;;;;;;8.46;60.58;103189.81;4761967;29;122246;-87
2022/02/27 18:57:46;;;;;;;26.05;14.75;;;;;;;8.54;60.28;103213.38;4772885;29;122934;-86
2022/02/27 19:00:18;;;;;;;25.83;15.50;;;;;;;8.53;60.03;103213.75;4762303;29;120784;-87
2022/02/27 19:02:45;;;;;;;26.48;14.88;;;;;;;8.43;60.17;103189.78;4774059;29;120379;-87
2022/02/27 19:05:11;;;;;;;27.83;15.13;;;;;;;8.44;59.95;103192.13;4770397;29;120312;-87
2022/02/27 19:07:40;;;;;;;24.73;15.55;;;;;;;8.51;60.72;103197.69;4769525;29;120544;-87
2022/02/27 19:10:08;;;;;;;26.17;15.07;;;;;;;8.27;60.22;103162.59;4770700;29;122967;-86
2022/02/27 19:12:34;;;;;;;28.52;14.63;;;;;;;8.50;60.51;103190.63;4760189;29;121044;-87
2022/02/27 19:15:00;;;;;;;24.20;14.93;;;;;;;8.42;60.33;103182.75;4758662;29;123892;-87
2022/02/27 19:17:26;;;;;;;24.55;14.35;;;;;;;7.97;60.35;103110.72;4758407;29;123073;-87
2022/02/27 19:19:53;;;;;;;24.00;14.90;;;;;;;8.23;60.29;103150.84;4774175;29;121851;-86
2022/02/27 19:22:20;;;;;;;26.73;14.75;;;;;;;8.18;60.75;103146.50;4772684;29;120296;-86
2022/02/27 19:24:46;;;;;;;24.90;14.52;;;;;;;8.32;60.78;103167.75;4785027;29;120904;-88
2022/02/27 19:27:11;;;;;;;25.70;15.95;;;;;;;8.43;60.24;103178.84;4759967;29;119828;-87
2022/02/27 19:29:37;;;;;;;26.40;15.45;;;;;;;8.27;61.20;103157.94;4769683;29;122788;-85
2022/02/27 19:32:03;;;;;;;27.77;16.13;;;;;;;8.22;60.89;103147.31;4755863;29;120907;-87
2022/02/27 19:34:29;;;;;;;26.85;16.20;;;;;;;8.26;60.71;103152.81;4759377;29;122829;-88
2022/02/27 19:36:55;;;;;;;27.45;16.65;;;;;;;8.24;60.88;103147.75;4755454;29;122776;-86
2022/02/27 19:39:22;;;;;;;27.63;15.43;;;;;;;8.29;61.02;103165.78;4774644;29;121371;-87
2022/02/27 19:41:49;;;;;;;28.17;15.63;;;;;;;8.23;61.27;103142.66;4769357;29;120333;-87
2022/02/27 19:44:14;;;;;;;28.38;15.98;;;;;;;8.21;61.10;103140.28;4770699;29;119671;-87
2022/02/27 19:46:40;;;;;;;27.92;16.45;;;;;;;8.18;61.05;103135.56;4768533;29;122495;-87
2022/02/27 19:49:06;;;;;;;26.48;16.27;;;;;;;8.20;61.08;103143.41;4755210;29;123943;-86
2022/02/27 19:51:32;;;;;;;27.52;16.85;;;;;;;8.27;60.86;103143.47;4774177;29;119698;-87
2022/02/27 19:53:59;;;;;;;28.08;16.42;;;;;;;8.22;61.23;103135.59;4770864;29;122659;-86
2022/02/27 19:56:24;;;;;;;31.17;17.25;;;;;;;8.17;61.12;103138.69;4770830;29;123072;-86
2022/02/27 19:58:53;;;;;;;34.60;18.05;;;;;;;8.17;60.86;103141.41;4756599;29;119534;-85
2022/02/27 20:01:19;;;;;;;26.63;18.30;;;;;;;8.07;61.16;103112.03;4773828;29;122076;-86
2022/02/27 20:03:45;;;;;;;30.58;18.08;;;;;;;8.10;61.51;103124.94;4770462;29;119810;-87
2022/02/27 20:06:11;;;;;;;28.90;17.50;;;;;;;8.20;61.11;103135.19;4769067;29;123304;-87
2022/02/27 20:08:39;;;;;;;33.10;19.38;;;;;;;8.10;61.41;103117.53;4771740;29;119926;-85
2022/02/27 20:11:07;;;;;;;30.80;18.80;;;;;;;8.01;61.09;103106.06;4759066;29;119911;-85
2022/02/27 20:13:33;;;;;;;28.77;18.92;;;;;;;8.05;60.63;103114.34;4769623;29;120441;-87
2022/02/27 20:16:02;;;;;;;29.65;18.52;;;;;;;8.06;61.10;103116.69;4770149;29;124778;-86
2022/02/27 20:18:28;;;;;;;26.95;17.85;;;;;;;7.96;61.58;103109.16;4774451;29;120930;-86
2022/02/27 20:20:58;;;;;;;29.90;18.90;;;;;;;7.94;61.52;103109.53;4771711;29;120415;-87
2022/02/27 20:23:25;;;;;;;27.90;18.50;;;;;;;7.84;61.26;103099.25;4777842;29;123543;-87
2022/02/27 20:25:52;;;;;;;29.30;19.25;;;;;;;7.69;61.56;103092.03;4760242;29;122403;-86
2022/02/27 20:28:19;;;;;;;31.92;18.65;;;;;;;7.88;61.77;103105.56;4776002;29;123365;-87
2022/02/27 20:30:46;;;;;;;32.25;19.23;;;;;;;7.90;61.24;103108.69;4790193;29;120124;-87
2022/02/27 20:33:14;;;;;;;35.80;20.52;;;;;;;7.59;61.14;103068.13;4759401;29;121963;-87
2022/02/27 20:35:40;;;;;;;33.28;20.05;;;;;;;7.83;61.47;103113.31;4777268;29;120091;-87
2022/02/27 20:38:07;;;;;;;35.67;19.98;;;;;;;7.69;61.63;103092.84;4775195;29;119807;-86
2022/02/27 20:40:34;;;;;;;33.28;19.55;;;;;;;7.80;61.58;103117.53;4774387;29;121569;-87
2022/02/27 20:43:02;;;;;;;34.50;20.30;;;;;;;7.75;61.21;103120.59;4791162;29;123923;-86
2022/02/27 20:45:29;;;;;;;31.15;19.58;;;;;;;7.60;61.67;103106.00;4776945;29;120173;-88
2022/02/27 20:47:55;;;;;;;29.70;19.63;;;;;;;7.72;61.47;103121.34;4758062;29;123904;-88
2022/02/27 20:50:22;;;;;;;31.38;20.35;;;;;;;7.71;61.81;103122.50;4776486;29;120153;-86
2022/02/27 20:52:49;;;;;;;29.17;19.27;;;;;;;7.69;61.10;103119.38;4774927;29;119732;-86
2022/02/27 20:55:17;;;;;;;33.10;19.73;;;;;;;7.67;60.87;103121.69;4790667;29;123159;-87
2022/02/27 20:57:45;;;;;;;29.52;19.58;;;;;;;7.60;61.27;103116.13;4789167;29;119705;-87
2022/02/27 21:00:15;;;;;;;28.77;19.23;;;;;;;7.51;61.09;103102.72;4773316;29;122577;-89
2022/02/27 21:02:43;;;;;;;27.90;18.80;;;;;;;7.51;61.32;103107.41;4760727;29;123375;-88
2022/02/27 21:05:11;;;;;;;31.35;20.15;;;;;;;7.15;60.99;103055.06;4758942;29;120474;-87
2022/02/27 21:07:36;;;;;;;31.92;19.58;;;;;;;7.03;61.45;103038.88;4776780;29;122368;-86
2022/02/27 21:10:05;;;;;;;31.20;20.55;;;;;;;7.17;61.57;103055.47;4743659;29;119775;-85
2022/02/27 21:12:31;;;;;;;30.45;19.67;;;;;;;7.26;61.63;103074.31;4758697;29;122358;-87
2022/02/27 21:14:58;;;;;;;32.25;19.77;;;;;;;7.50;61.31;103094.91;4774191;29;119860;-87
2022/02/27 21:17:23;;;;;;;27.80;18.50;;;;;;;7.34;61.53;103082.25;4775456;29;120369;-88
2022/02/27 21:19:49;;;;;;;28.33;19.52;;;;;;;7.29;61.14;103076.28;4773508;29;123205;-89
2022/02/27 21:22:18;;;;;;;31.17;18.40;;;;;;;7.33;61.11;103088.84;4776679;29;119605;-90
2022/02/27 21:24:44;;;;;;;30.73;18.75;;;;;;;7.36;61.66;103109.19;4759337;29;119562;-87
2022/02/27 21:27:10;;;;;;;33.85;19.65;;;;;;;7.35;61.39;103094.75;4778393;29;121087;-88
2022/02/27 21:29:35;;;;;;;30.52;18.30;;;;;;;7.37;61.15;103103.34;4775393;29;121447;-92
2022/02/27 21:32:01;;;;;;;29.55;17.58;;;;;;;7.24;61.46;103087.53;4760522;29;121645;-89
2022/02/27 21:34:27;;;;;;;28.00;18.48;;;;;;;7.27;61.81;103097.72;4775249;29;122234;-89
2022/02/27 21:36:53;;;;;;;26.70;17.83;;;;;;;7.32;61.50;103106.38;4789749;29;119908;-88
2022/02/27 21:39:24;;;;;;;31.23;18.52;;;;;;;7.23;61.97;103092.22;4774633;29;122608;-87
2022/02/27 21:41:54;;;;;;;31.63;17.75;;;;;;;7.26;61.75;103091.47;4761124;29;123404;-87
2022/02/27 21:44:22;;;;;;;29.35;17.90;;;;;;;7.13;61.57;103079.22;4777505;29;119738;-88
2022/02/27 21:46:48;;;;;;;30.90;18.30;;;;;;;7.16;62.19;103092.13;4777017;29;122719;-89
2022/02/27 21:49:18;;;;;;;30.08;18.08;;;;;;;7.26;62.27;103104.34;4796952;29;119964;-88
2022/02/27 21:51:44;;;;;;;29.20;17.15;;;;;;;7.18;61.87;103089.81;4776895;29;119893;-88
2022/02/27 21:54:10;;;;;;;27.17;17.00;;;;;;;7.02;61.69;103062.66;4757946;29;123117;-85
2022/02/27 21:56:36;;;;;;;26.88;16.25;;;;;;;7.09;61.94;103078.34;4762167;29;119486;-87
2022/02/27 21:59:02;;;;;;;29.08;17.10;;;;;;;7.14;62.21;103075.31;4776916;29;123020;-85
2022/02/27 22:01:28;;;;;;;27.70;16.92;;;;;;;7.18;61.94;103084.34;4775942;29;122615;-86
2022/02/27 22:03:54;;;;;;;26.55;17.15;;;;;;;7.24;61.92;103093.00;4792711;29;120060;-86
2022/02/27 22:06:22;;;;;;;27.45;16.90;;;;;;;7.12;61.32;103079.59;4775511;29;119933;-86
2022/02/27 22:08:48;;;;;;;29.50;17.45;;;;;;;7.18;61.95;103100.72;4776255;29;124313;-85
2022/02/27 22:11:14;;;;;;;25.60;17.23;;;;;;;7.12;61.93;103085.81;4781462;29;119799;-86
2022/02/27 22:13:39;;;;;;;23.70;16.55;;;;;;;7.08;61.85;103080.28;4776901;29;123019;-83
2022/02/27 22:16:05;;;;;;;26.77;16.75;;;;;;;7.09;61.95;103079.13;4778053;29;121628;-85
2022/02/27 22:18:31;;;;;;;29.50;16.98;;;;;;;7.18;61.66;103092.53;4762377;29;121979;-85
2022/02/27 22:20:57;;;;;;;28.48;17.77;;;;;;;7.24;61.66;103101.97;4776647;29;122421;-84
2022/02/27 22:23:23;;;;;;;26.77;17.15;;;;;;;7.24;61.56;103098.47;4761550;29;120652;-86
2022/02/27 22:25:49;;;;;;;26.83;16.80;;;;;;;7.16;61.55;103092.13;4777290;29;122568;-86
2022/02/27 22:28:19;;;;;;;30.05;17.13;;;;;;;7.21;61.22;103105.44;4762470;29;123209;-85
2022/02/27 22:30:49;;;;;;;26.10;15.68;;;;;;;7.13;61.70;103087.41;4791588;29;120248;-84
2022/02/27 22:33:15;;;;;;;25.73;15.57;;;;;;;7.19;61.23;103106.97;4765363;29;123521;-84
2022/02/27 22:35:43;;;;;;;26.38;17.17;;;;;;;7.06;61.12;103087.28;4769388;29;119797;-84
2022/02/27 22:38:10;;;;;;;25.33;16.40;;;;;;;7.11;61.59;103100.63;4784930;29;120252;-86
2022/02/27 22:40:36;;;;;;;28.50;16.33;;;;;;;7.12;61.52;103098.69;4778743;29;120222;-87
2022/02/27 22:43:01;;;;;;;27.95;16.80;;;;;;;7.08;61.24;103095.88;4767279;29;122907;-87
2022/02/27 22:45:27;;;;;;;24.77;16.50;;;;;;;7.01;61.17;103084.88;4796330;29;119968;-86
2022/02/27 22:47:53;;;;;;;23.55;16.45;;;;;;;7.03;60.63;103096.19;4778553;29;123291;-87
2022/02/27 22:50:19;;;;;;;26.20;16.38;;;;;;;6.99;61.07;103092.63;4788795;29;119756;-87
2022/02/27 22:52:45;;;;;;;28.17;17.58;;;;;;;7.01;61.13;103106.69;4762065;29;121878;-87
2022/02/27 22:55:12;;;;;;;24.23;16.15;;;;;;;7.06;61.40;103117.28;4767567;29;123956;-86
2022/02/27 22:57:38;;;;;;;24.33;17.20;;;;;;;6.92;61.14;103098.78;4782307;29;119876;-88
2022/02/27 23:00:33;;;;;;;24.58;16.17;;;;;;;6.75;60.90;103061.88;4792552;29;120188;-88
2022/02/27 23:02:59;;;;;;;24.40;16.15;;;;;;;6.92;60.91;103093.31;4793103;29;120378;-87
2022/02/27 23:05:25;;;;;;;28.38;16.90;;;;;;;6.97;60.56;103100.41;4770049;29;122400;-86
2022/02/27 23:10:36;;;;;;;29.35;16.35;;;;;;;6.96;61.08;103110.53;4778128;29;119868;-87
2022/02/27 23:13:02;;;;;;;24.77;16.13;;;;;;;6.96;61.23;103109.75;4752510;29;122092;-86
2022/02/27 23:15:28;;;;;;;26.13;16.00;;;;;;;6.81;60.95;103095.06;4779660;29;121132;-85